createdAt,value
2023-04-03T00:01:12.587Z,12.64
2023-04-03T00:03:42.247Z,12.62
2023-04-03T00:06:12.122Z,11.91
2023-04-03T00:08:40.867Z,12.31
2023-04-03T00:11:09.862Z,12.13
2023-04-03T00:13:39.722Z,12.18
2023-04-03T00:16:08.240Z,11.98
2023-04-03T00:18:36.636Z,12.53
2023-04-03T00:21:05.204Z,11.52
2023-04-03T00:23:33.261Z,12.06
2023-04-03T00:26:01.071Z,12.63
2023-04-03T00:28:28.857Z,13.30
2023-04-03T00:30:58.010Z,12.69
2023-04-03T00:33:25.793Z,11.82
2023-04-03T00:35:53.809Z,12.16
2023-04-03T00:38:22.126Z,12.15
2023-04-03T00:40:50.928Z,12.38
2023-04-03T00:43:25.097Z,12.43
2023-04-03T00:45:53.845Z,11.97
2023-04-03T00:48:27.394Z,11.89
2023-04-03T00:50:56.078Z,12.16
2023-04-03T00:53:26.737Z,11.81
2023-04-03T00:55:57.784Z,11.80
2023-04-03T00:58:30.743Z,11.94
2023-04-03T01:01:00.903Z,11.45
2023-04-03T01:03:32.351Z,11.73
2023-04-03T01:06:01.868Z,11.27
2023-04-03T01:08:31.068Z,12.21
2023-04-03T01:10:59.030Z,10.85
2023-04-03T01:13:31.598Z,11.13
2023-04-03T01:16:03.020Z,11.72
2023-04-03T01:18:34.093Z,11.97
2023-04-03T01:21:23.416Z,11.71
2023-04-03T01:24:02.627Z,11.26
2023-04-03T01:26:30.729Z,11.22
2023-04-03T01:29:01.372Z,11.39
2023-04-03T01:31:33.801Z,11.29
2023-04-03T01:34:04.060Z,11.24
2023-04-03T01:36:33.853Z,11.60
2023-04-03T01:39:02.332Z,11.11
2023-04-03T01:41:31.476Z,10.76
2023-04-03T01:44:08.616Z,11.67
2023-04-03T01:46:36.706Z,10.82
2023-04-03T01:49:06.258Z,11.30
2023-04-03T01:51:34.554Z,11.11
2023-04-03T01:54:02.593Z,10.77
2023-04-03T01:56:30.449Z,10.99
2023-04-03T01:58:58.640Z,10.78
2023-04-03T02:01:27.815Z,11.55
2023-04-03T02:03:55.651Z,11.23
2023-04-03T02:06:24.843Z,11.32
2023-04-03T02:08:52.546Z,11.21
2023-04-03T02:11:21.101Z,11.25
2023-04-03T02:13:48.889Z,11.22
2023-04-03T02:16:16.753Z,11.69
2023-04-03T02:18:44.643Z,11.55
2023-04-03T02:21:12.543Z,11.41
2023-04-03T02:23:41.829Z,11.47
2023-04-03T02:26:11.789Z,11.77
2023-04-03T02:28:39.895Z,11.12
2023-04-03T02:31:11.059Z,10.52
2023-04-03T02:33:40.645Z,10.05
2023-04-03T02:36:11.418Z,10.00
2023-04-03T02:38:43.554Z,9.81
2023-04-03T02:41:13.717Z,9.16
2023-04-03T02:43:42.173Z,9.34
2023-04-03T02:46:10.611Z,9.34
2023-04-03T02:48:38.932Z,9.03
2023-04-03T02:51:07.213Z,9.44
2023-04-03T02:53:35.089Z,9.15
2023-04-03T02:56:10.738Z,9.74
2023-04-03T02:58:38.806Z,9.58
2023-04-03T03:01:09.209Z,9.79
2023-04-03T03:03:37.040Z,9.19
2023-04-03T03:06:06.254Z,9.66
2023-04-03T03:08:35.224Z,9.04
2023-04-03T03:11:03.056Z,9.04
2023-04-03T03:13:32.752Z,9.69
2023-04-03T03:16:01.135Z,9.66
2023-04-03T03:18:30.342Z,9.51
2023-04-03T03:20:59.992Z,9.04
2023-04-03T03:23:29.802Z,9.01
2023-04-03T03:25:58.484Z,9.47
2023-04-03T03:28:26.510Z,9.27
2023-04-03T03:30:55.795Z,9.84
2023-04-03T03:33:24.982Z,10.14
2023-04-03T03:35:53.780Z,10.07
2023-04-03T03:38:21.996Z,10.08
2023-04-03T03:40:50.660Z,10.38
2023-04-03T03:43:21.081Z,10.79
2023-04-03T03:45:52.980Z,10.40
2023-04-03T03:48:22.874Z,10.69
2023-04-03T03:50:51.735Z,11.04
2023-04-03T03:53:22.240Z,10.68
2023-04-03T03:55:53.607Z,10.38
2023-04-03T03:58:24.455Z,10.06
2023-04-03T04:00:52.263Z,10.26
2023-04-03T04:03:20.446Z,10.76
2023-04-03T04:05:51.420Z,10.62
2023-04-03T04:08:19.599Z,10.75
2023-04-03T04:10:47.806Z,10.11
2023-04-03T04:13:17.775Z,10.18
2023-04-03T04:15:46.104Z,10.13
2023-04-03T04:18:15.573Z,10.75
2023-04-03T04:20:47.320Z,10.14
2023-04-03T04:23:19.357Z,10.38
2023-04-03T04:25:48.930Z,10.26
2023-04-03T04:28:17.355Z,10.13
2023-04-03T04:30:45.881Z,10.07
2023-04-03T04:33:15.152Z,9.98
2023-04-03T04:35:44.543Z,10.24
2023-04-03T04:38:13.247Z,10.23
2023-04-03T04:40:42.768Z,10.39
2023-04-03T04:43:11.796Z,10.44
2023-04-03T04:45:39.819Z,10.03
2023-04-03T04:48:07.872Z,9.98
2023-04-03T04:50:35.760Z,10.50
2023-04-03T04:53:03.636Z,11.50
2023-04-03T04:55:31.441Z,10.48
2023-04-03T04:58:00.653Z,10.81
2023-04-03T05:00:28.950Z,11.30
2023-04-03T05:02:57.421Z,10.43
2023-04-03T05:05:25.747Z,10.61
2023-04-03T05:07:53.905Z,10.68
2023-04-03T05:10:22.542Z,11.31
2023-04-03T05:12:50.333Z,11.58
2023-04-03T05:15:20.269Z,10.42
2023-04-03T05:17:48.560Z,10.61
2023-04-03T05:20:17.253Z,10.77
2023-04-03T05:22:47.128Z,9.95
2023-04-03T05:25:15.226Z,10.38
2023-04-03T05:27:45.336Z,10.07
2023-04-03T05:30:14.451Z,9.27
2023-04-03T05:32:44.722Z,9.40
2023-04-03T05:35:32.416Z,10.69
2023-04-03T05:38:03.581Z,10.16
2023-04-03T05:40:33.160Z,10.49
2023-04-03T05:43:00.982Z,11.28
2023-04-03T05:45:32.625Z,10.36
2023-04-03T05:48:02.188Z,11.22
2023-04-03T05:50:31.566Z,10.61
2023-04-03T05:53:00.174Z,10.76
2023-04-03T05:55:30.651Z,11.30
2023-04-03T05:57:58.550Z,10.93
2023-04-03T06:00:26.839Z,10.94
2023-04-03T06:03:03.251Z,11.17
2023-04-03T06:05:31.378Z,11.70
2023-04-03T06:07:59.262Z,11.11
2023-04-03T06:10:27.224Z,11.30
2023-04-03T06:12:55.102Z,10.97
2023-04-03T06:15:23.040Z,10.89
2023-04-03T06:17:51.573Z,11.68
2023-04-03T06:20:20.762Z,11.61
2023-04-03T06:22:48.657Z,11.42
2023-04-03T06:25:18.490Z,11.67
2023-04-03T06:27:46.820Z,11.25
2023-04-03T06:30:14.949Z,10.81
2023-04-03T06:32:44.045Z,10.46
2023-04-03T06:35:12.353Z,10.77
2023-04-03T06:37:41.602Z,11.50
2023-04-03T06:40:19.936Z,12.04
2023-04-03T06:42:48.076Z,11.90
2023-04-03T06:45:16.324Z,11.28
2023-04-03T06:47:44.510Z,12.11
2023-04-03T06:50:15.272Z,11.55
2023-04-03T06:52:44.475Z,11.00
2023-04-03T06:55:13.701Z,11.48
2023-04-03T06:57:41.547Z,11.54
2023-04-03T07:00:10.964Z,12.19
2023-04-03T07:02:38.904Z,11.13
2023-04-03T07:05:07.799Z,10.70
2023-04-03T07:07:35.670Z,12.10
2023-04-03T07:10:05.627Z,12.60
2023-04-03T07:12:33.490Z,13.02
2023-04-03T07:15:01.356Z,13.56
2023-04-03T07:17:29.462Z,14.09
2023-04-03T07:19:58.322Z,13.72
2023-04-03T07:22:26.216Z,13.96
2023-04-03T07:24:54.138Z,13.65
2023-04-03T07:27:23.359Z,12.71
2023-04-03T07:29:51.102Z,12.48
2023-04-03T07:32:19.363Z,13.73
2023-04-03T07:34:47.164Z,13.91
2023-04-03T07:37:15.722Z,14.27
2023-04-03T07:39:45.809Z,13.83
2023-04-03T07:42:14.286Z,12.64
2023-04-03T07:44:43.682Z,12.91
2023-04-03T07:47:11.627Z,13.70
2023-04-03T07:49:41.468Z,13.03
2023-04-03T07:52:09.957Z,13.78
2023-04-03T07:54:37.868Z,13.85
2023-04-03T07:57:06.396Z,13.41
2023-04-03T07:59:34.626Z,13.68
2023-04-03T08:02:05.869Z,13.32
2023-04-03T08:04:34.150Z,13.55
2023-04-03T08:07:02.027Z,13.34
2023-04-03T08:09:29.849Z,12.96
2023-04-03T08:11:57.772Z,12.80
2023-04-03T08:14:26.367Z,11.92
2023-04-03T08:16:54.376Z,12.23
2023-04-03T08:19:26.689Z,12.71
2023-04-03T08:21:56.043Z,13.11
2023-04-03T08:24:23.970Z,13.48
2023-04-03T08:26:51.738Z,14.33
2023-04-03T08:29:19.573Z,15.65
2023-04-03T08:31:47.414Z,14.71
2023-04-03T08:34:15.590Z,13.42
2023-04-03T08:36:45.414Z,13.50
2023-04-03T08:39:14.063Z,13.94
2023-04-03T08:41:44.859Z,13.72
2023-04-03T08:44:26.853Z,13.38
2023-04-03T08:47:04.096Z,13.92
2023-04-03T08:49:35.927Z,14.08
2023-04-03T08:52:13.591Z,14.15
2023-04-03T08:54:51.117Z,14.06
2023-04-03T08:57:21.221Z,14.44
2023-04-03T08:59:49.326Z,14.36
2023-04-03T09:02:28.378Z,14.77
2023-04-03T09:04:56.615Z,14.26
2023-04-03T09:07:35.111Z,14.98
2023-04-03T09:10:04.091Z,14.74
2023-04-03T09:12:39.241Z,15.03
2023-04-03T09:15:20.013Z,14.31
2023-04-03T09:18:02.379Z,15.71
2023-04-03T09:20:41.554Z,17.34
2023-04-03T09:23:20.500Z,15.43
2023-04-03T09:25:48.859Z,15.77
2023-04-03T09:28:16.936Z,14.53
2023-04-03T09:30:44.814Z,14.52
2023-04-03T09:33:13.805Z,15.82
2023-04-03T09:35:48.297Z,15.11
2023-04-03T09:38:22.043Z,15.75
2023-04-03T09:40:52.246Z,15.52
2023-04-03T09:43:29.809Z,16.08
2023-04-03T09:46:08.596Z,15.32
2023-04-03T09:48:36.555Z,17.27
2023-04-03T09:51:05.215Z,16.61
2023-04-03T09:53:37.767Z,15.57
2023-04-03T09:56:20.819Z,15.40
2023-04-03T09:58:51.422Z,15.19
2023-04-03T10:01:30.112Z,16.37
2023-04-03T10:04:11.052Z,16.86
2023-04-03T10:06:44.339Z,17.51
2023-04-03T10:09:21.957Z,18.30
2023-04-03T10:12:02.158Z,17.22
2023-04-03T10:14:31.030Z,17.18
2023-04-03T10:17:05.595Z,17.82
2023-04-03T10:19:38.717Z,16.48
2023-04-03T10:22:18.663Z,15.21
2023-04-03T10:24:56.405Z,18.46
2023-04-03T10:27:34.895Z,18.31
2023-04-03T10:30:12.499Z,20.44
2023-04-03T10:32:52.456Z,18.40
2023-04-03T10:35:31.384Z,17.07
2023-04-03T10:38:06.753Z,16.51
2023-04-03T10:40:44.111Z,18.00
2023-04-03T10:43:19.949Z,14.89
2023-04-03T10:46:02.391Z,17.14
2023-04-03T10:48:51.161Z,16.46
2023-04-03T10:51:27.717Z,16.69
2023-04-03T10:54:02.239Z,17.58
2023-04-03T10:56:40.283Z,17.43
2023-04-03T10:59:22.773Z,15.91
2023-04-03T11:01:55.857Z,16.54
2023-04-03T11:04:26.330Z,16.24
2023-04-03T11:06:59.702Z,16.57
2023-04-03T11:09:30.491Z,16.45
2023-04-03T11:12:05.582Z,16.43
2023-04-03T11:14:36.695Z,15.71
2023-04-03T11:17:13.137Z,16.51
2023-04-03T11:19:47.322Z,16.67
2023-04-03T11:22:24.157Z,15.83
2023-04-03T11:25:00.852Z,16.39
2023-04-03T11:27:37.765Z,15.62
2023-04-03T11:30:09.389Z,15.67
2023-04-03T11:32:57.733Z,15.58
2023-04-03T11:35:27.464Z,16.55
2023-04-03T11:37:55.800Z,17.11
2023-04-03T11:40:27.783Z,16.65
2023-04-03T11:43:07.390Z,16.19
2023-04-03T11:45:41.165Z,15.39
2023-04-03T11:48:46.924Z,16.50
2023-04-03T11:51:42.692Z,17.30
2023-04-03T11:54:44.411Z,16.13
2023-04-03T11:57:45.892Z,17.29
2023-04-03T12:00:51.649Z,16.67
2023-04-03T12:03:54.390Z,18.03
2023-04-03T12:07:13.797Z,17.06
2023-04-03T12:10:31.088Z,17.20
2023-04-03T12:13:07.525Z,17.54
2023-04-03T12:15:55.390Z,17.86
2023-04-03T12:18:57.560Z,18.19
2023-04-03T12:21:46.504Z,17.67
2023-04-03T12:24:28.336Z,16.93
2023-04-03T12:27:18.937Z,17.54
2023-04-03T12:29:53.393Z,18.03
2023-04-03T12:32:37.241Z,17.41
2023-04-03T12:35:18.566Z,17.95
2023-04-03T12:38:03.736Z,17.56
2023-04-03T12:40:44.854Z,15.66
2023-04-03T12:43:31.672Z,15.69
2023-04-03T12:46:05.039Z,16.29
2023-04-03T12:48:39.829Z,16.38
2023-04-03T12:51:08.881Z,16.59
2023-04-03T12:53:39.553Z,17.39
2023-04-03T12:56:26.440Z,17.08
2023-04-03T12:58:55.834Z,17.36
2023-04-03T13:01:26.233Z,18.14
2023-04-03T13:03:56.246Z,17.51
2023-04-03T13:06:26.812Z,17.17
2023-04-03T13:08:57.929Z,16.94
2023-04-03T13:11:28.948Z,17.88
2023-04-03T13:13:58.964Z,18.85
2023-04-03T13:16:27.455Z,17.30
2023-04-03T13:18:56.558Z,17.38
2023-04-03T13:21:27.943Z,16.71
2023-04-03T13:24:11.508Z,18.09
2023-04-03T13:26:44.976Z,18.70
2023-04-03T13:29:30.926Z,17.67
2023-04-03T13:32:00.883Z,18.80
2023-04-03T13:34:32.558Z,20.23
2023-04-03T13:37:02.272Z,18.83
2023-04-03T13:39:32.399Z,17.87
2023-04-03T13:42:03.765Z,16.54
2023-04-03T13:44:37.723Z,15.44
2023-04-03T13:47:18.994Z,15.87
2023-04-03T13:50:00.189Z,15.33
2023-04-03T13:52:32.068Z,15.35
2023-04-03T13:55:04.214Z,15.23
2023-04-03T13:57:35.682Z,15.05
2023-04-03T14:00:22.446Z,14.48
2023-04-03T14:02:50.433Z,15.57
2023-04-03T14:05:22.110Z,15.91
2023-04-03T14:07:50.066Z,15.36
2023-04-03T14:10:18.087Z,14.57
2023-04-03T14:12:47.241Z,15.97
2023-04-03T14:15:21.767Z,16.97
2023-04-03T14:17:49.791Z,17.39
2023-04-03T14:20:19.210Z,18.13
2023-04-03T14:22:47.268Z,19.13
2023-04-03T14:25:15.132Z,17.05
2023-04-03T14:27:45.919Z,17.17
2023-04-03T14:30:20.039Z,16.61
2023-04-03T14:32:48.826Z,16.39
2023-04-03T14:35:17.690Z,16.17
2023-04-03T14:37:45.764Z,18.23
2023-04-03T14:40:16.969Z,18.32
2023-04-03T14:42:45.011Z,18.97
2023-04-03T14:45:14.258Z,17.66
2023-04-03T14:47:48.474Z,17.17
2023-04-03T14:50:19.285Z,18.27
2023-04-03T14:52:51.140Z,18.27
2023-04-03T14:55:20.118Z,16.54
2023-04-03T14:57:48.180Z,16.28
2023-04-03T15:00:18.500Z,16.40
2023-04-03T15:02:48.814Z,17.83
2023-04-03T15:05:17.678Z,18.91
2023-04-03T15:07:49.915Z,18.60
2023-04-03T15:10:21.498Z,18.24
2023-04-03T15:12:50.269Z,16.18
2023-04-03T15:15:20.784Z,16.26
2023-04-03T15:17:54.848Z,17.33
2023-04-03T15:20:24.810Z,15.82
2023-04-03T15:22:53.198Z,15.60
2023-04-03T15:25:21.131Z,16.10
2023-04-03T15:27:49.102Z,17.39
2023-04-03T15:30:19.173Z,17.87
2023-04-03T15:32:47.056Z,20.27
2023-04-03T15:35:16.654Z,21.07
2023-04-03T15:37:44.509Z,23.05
2023-04-03T15:40:13.120Z,24.24
2023-04-03T15:42:41.315Z,25.04
2023-04-03T15:45:10.468Z,19.64
2023-04-03T15:47:38.498Z,19.81
2023-04-03T15:50:09.131Z,17.83
2023-04-03T15:52:38.879Z,16.58
2023-04-03T15:55:07.971Z,16.56
2023-04-03T16:00:12.563Z,16.83
2023-04-03T16:02:40.697Z,16.92
2023-04-03T16:05:09.856Z,17.00
2023-04-03T16:07:40.793Z,17.61
2023-04-03T16:10:10.466Z,18.82
2023-04-03T16:12:38.876Z,19.42
2023-04-03T16:15:08.364Z,19.85
2023-04-03T16:17:37.851Z,18.81
2023-04-03T16:20:07.603Z,21.15
2023-04-03T16:22:36.229Z,19.97
2023-04-03T16:25:06.314Z,21.00
2023-04-03T16:27:34.148Z,20.87
2023-04-03T16:30:02.338Z,21.00
2023-04-03T16:32:32.417Z,19.25
2023-04-03T16:37:31.058Z,19.46
2023-04-03T16:40:00.774Z,19.91
2023-04-03T16:42:30.020Z,18.64
2023-04-03T16:44:59.756Z,18.27
2023-04-03T16:47:27.831Z,19.22
2023-04-03T16:49:55.775Z,19.38
2023-04-03T16:52:23.903Z,19.07
2023-04-03T16:54:56.232Z,18.21
2023-04-03T16:57:25.577Z,16.96
2023-04-03T16:59:55.578Z,17.29
2023-04-03T17:02:25.740Z,17.56
2023-04-03T17:04:53.871Z,17.81
2023-04-03T17:07:22.311Z,17.63
2023-04-03T17:09:50.701Z,17.81
2023-04-03T17:12:18.604Z,16.30
2023-04-03T17:14:47.684Z,16.83
2023-04-03T17:17:17.948Z,16.01
2023-04-03T17:19:46.636Z,15.68
2023-04-03T17:22:15.126Z,16.08
2023-04-03T17:24:43.065Z,15.48
2023-04-03T17:27:11.118Z,16.39
2023-04-03T17:29:39.246Z,16.03
2023-04-03T17:32:07.264Z,16.13
2023-04-03T17:34:36.939Z,16.14
2023-04-03T17:37:05.382Z,15.33
2023-04-03T17:39:33.376Z,15.43
2023-04-03T17:42:01.512Z,16.07
2023-04-03T17:44:29.512Z,16.37
2023-04-03T17:46:57.345Z,16.39
2023-04-03T17:49:25.214Z,16.90
2023-04-03T17:51:54.725Z,16.43
2023-04-03T17:54:22.825Z,16.17
2023-04-03T17:56:50.934Z,16.84
2023-04-03T17:59:19.347Z,17.58
2023-04-03T18:01:48.139Z,17.44
2023-04-03T18:04:16.030Z,16.83
2023-04-03T18:06:46.534Z,16.95
2023-04-03T18:09:19.714Z,16.15
2023-04-03T18:11:49.148Z,15.90
2023-04-03T18:14:19.810Z,15.73
2023-04-03T18:16:47.605Z,15.97
2023-04-03T18:21:47.750Z,16.90
2023-04-03T18:24:20.177Z,17.51
2023-04-03T18:26:52.511Z,17.50
2023-04-03T18:29:21.141Z,15.98
2023-04-03T18:31:51.926Z,16.20
2023-04-03T18:34:19.783Z,16.44
2023-04-03T18:36:49.069Z,15.84
2023-04-03T18:39:18.577Z,15.74
2023-04-03T18:41:47.089Z,15.89
2023-04-03T18:44:19.401Z,15.78
2023-04-03T18:46:47.906Z,16.60
2023-04-03T18:49:18.040Z,15.71
2023-04-03T18:51:46.144Z,15.91
2023-04-03T18:54:13.996Z,15.94
2023-04-03T18:56:43.188Z,15.80
2023-04-03T18:59:11.023Z,15.72
2023-04-03T19:01:38.900Z,15.82
2023-04-03T19:04:07.437Z,16.30
2023-04-03T19:06:36.666Z,15.76
2023-04-03T19:09:07.485Z,14.91
2023-04-03T19:11:35.457Z,14.90
2023-04-03T19:14:16.064Z,14.56
2023-04-03T19:16:45.320Z,14.63
2023-04-03T19:19:13.465Z,15.52
2023-04-03T19:21:42.018Z,14.66
2023-04-03T19:24:17.508Z,14.36
2023-04-03T19:26:55.513Z,14.53
2023-04-03T19:29:27.405Z,14.78
2023-04-03T19:31:57.639Z,15.22
2023-04-03T19:34:30.576Z,14.72
2023-04-03T19:37:03.804Z,14.64
2023-04-03T19:39:46.652Z,14.76
2023-04-03T19:42:14.755Z,14.80
2023-04-03T19:44:45.176Z,14.38
2023-04-03T19:47:16.155Z,14.40
2023-04-03T19:49:44.103Z,14.35
2023-04-03T19:52:11.963Z,14.40
2023-04-03T19:54:39.782Z,14.44
2023-04-03T19:57:08.748Z,14.44
2023-04-03T19:59:36.824Z,14.20
2023-04-03T20:02:06.336Z,13.85
2023-04-03T20:04:34.276Z,12.91
2023-04-03T20:07:02.868Z,12.61
2023-04-03T20:09:31.230Z,13.89
2023-04-03T20:12:00.451Z,14.00
2023-04-03T20:14:28.477Z,13.86
2023-04-03T20:16:56.607Z,12.56
2023-04-03T20:19:26.910Z,12.31
2023-04-03T20:21:55.957Z,13.24
2023-04-03T20:24:23.701Z,13.63
2023-04-03T20:26:51.654Z,13.12
2023-04-03T20:29:19.602Z,12.86
2023-04-03T20:31:50.422Z,12.67
2023-04-03T20:34:18.262Z,13.11
2023-04-03T20:36:49.732Z,12.76
2023-04-03T20:39:19.348Z,13.11
2023-04-03T20:41:47.337Z,12.90
2023-04-03T20:44:17.592Z,12.43
2023-04-03T20:46:53.021Z,12.71
2023-04-03T20:49:25.760Z,12.99
2023-04-03T20:51:54.875Z,12.97
2023-04-03T20:54:23.282Z,12.45
2023-04-03T20:56:51.337Z,12.02
2023-04-03T20:59:19.260Z,12.50
2023-04-03T21:01:48.842Z,12.79
2023-04-03T21:04:23.448Z,12.54
2023-04-03T21:07:28.442Z,12.20
2023-04-03T21:10:33.364Z,12.85
2023-04-03T21:13:38.675Z,12.51
2023-04-03T21:16:06.157Z,12.75
2023-04-03T21:18:49.636Z,12.40
2023-04-03T21:21:22.321Z,12.66
2023-04-03T21:23:51.806Z,12.39
2023-04-03T21:26:21.532Z,12.55
2023-04-03T21:28:51.442Z,12.17
2023-04-03T21:31:20.610Z,12.21
2023-04-03T21:33:49.814Z,12.89
2023-04-03T21:36:17.540Z,12.26
2023-04-03T21:38:47.544Z,12.29
2023-04-03T21:41:15.522Z,12.65
2023-04-03T21:43:43.251Z,12.54
2023-04-03T21:46:11.099Z,12.06
2023-04-03T21:48:39.262Z,12.39
2023-04-03T21:51:08.780Z,12.07
2023-04-03T21:53:37.199Z,11.77
2023-04-03T21:56:05.237Z,12.04
2023-04-03T21:58:34.327Z,12.25
2023-04-03T22:01:10.592Z,11.97
2023-04-03T22:03:38.436Z,12.17
2023-04-03T22:06:06.544Z,11.78
2023-04-03T22:08:36.175Z,11.85
2023-04-03T22:11:04.694Z,11.81
2023-04-03T22:13:32.789Z,11.94
2023-04-03T22:16:01.876Z,11.79
2023-04-03T22:18:30.297Z,12.28
2023-04-03T22:20:58.329Z,11.96
2023-04-03T22:23:27.289Z,11.79
2023-04-03T22:26:03.738Z,11.72
2023-04-03T22:28:32.665Z,11.19
2023-04-03T22:31:02.248Z,11.93
2023-04-03T22:33:30.100Z,12.05
2023-04-03T22:35:58.062Z,12.06
2023-04-03T22:38:25.917Z,11.66
2023-04-03T22:41:02.655Z,11.12
2023-04-03T22:43:32.447Z,11.49
2023-04-03T22:46:02.401Z,11.59
2023-04-03T22:48:30.815Z,11.49
2023-04-03T22:50:59.047Z,12.11
2023-04-03T22:53:26.806Z,11.92
2023-04-03T22:55:58.158Z,11.47
2023-04-03T22:58:27.705Z,12.11
2023-04-03T23:00:56.211Z,12.06
2023-04-03T23:03:24.236Z,12.12
2023-04-03T23:05:52.512Z,12.53
2023-04-03T23:08:20.398Z,11.86
2023-04-03T23:10:48.452Z,12.27
2023-04-03T23:13:16.202Z,12.15
2023-04-03T23:15:45.285Z,11.92
2023-04-03T23:18:13.028Z,12.15
2023-04-03T23:20:41.128Z,11.58
2023-04-03T23:23:09.152Z,11.25
2023-04-03T23:25:37.731Z,12.26
2023-04-03T23:28:05.464Z,11.89
2023-04-03T23:30:33.787Z,12.01
2023-04-03T23:33:02.860Z,12.38
2023-04-03T23:35:31.515Z,12.25
2023-04-03T23:37:59.246Z,11.30
2023-04-03T23:40:27.137Z,11.60
2023-04-03T23:42:57.543Z,11.77
2023-04-03T23:45:25.359Z,12.26
2023-04-03T23:47:53.092Z,12.26
2023-04-03T23:50:22.162Z,11.63
2023-04-03T23:52:49.882Z,11.98
2023-04-03T23:55:17.615Z,12.21
2023-04-03T23:57:45.541Z,12.95
